createdAt,value
2023-05-06T00:02:57.309Z,58.18
2023-05-06T00:05:59.995Z,58.63
2023-05-06T00:09:02.640Z,58.57
2023-05-06T00:12:05.609Z,58.95
2023-05-06T00:15:08.847Z,59.25
2023-05-06T00:18:11.605Z,59.22
2023-05-06T00:21:14.209Z,59.31
2023-05-06T00:24:16.794Z,59.54
2023-05-06T00:27:19.382Z,59.40
2023-05-06T00:30:22.160Z,59.49
2023-05-06T00:33:24.762Z,59.34
2023-05-06T00:36:27.882Z,59.37
2023-05-06T00:39:30.687Z,59.38
2023-05-06T00:42:33.392Z,59.31
2023-05-06T00:45:36.658Z,59.49
2023-05-06T00:48:39.580Z,59.60
2023-05-06T00:51:42.206Z,59.93
2023-05-06T00:54:44.858Z,59.78
2023-05-06T00:57:49.551Z,59.85
2023-05-06T01:00:52.467Z,59.96
2023-05-06T01:03:58.456Z,60.32
2023-05-06T01:07:01.531Z,60.41
2023-05-06T01:10:19.980Z,60.36
2023-05-06T01:13:52.000Z,60.58
2023-05-06T01:16:56.563Z,60.84
2023-05-06T01:19:59.878Z,60.89
2023-05-06T01:23:06.837Z,61.09
2023-05-06T01:26:09.473Z,61.46
2023-05-06T01:29:12.238Z,61.65
2023-05-06T01:32:29.983Z,61.83
2023-05-06T01:35:32.877Z,62.06
2023-05-06T01:38:42.012Z,62.13
2023-05-06T01:41:48.796Z,62.55
2023-05-06T01:44:52.941Z,62.84
2023-05-06T01:47:56.728Z,63.03
2023-05-06T01:50:59.398Z,63.08
2023-05-06T01:54:02.384Z,63.00
2023-05-06T01:57:05.032Z,62.87
2023-05-06T02:00:09.910Z,63.14
2023-05-06T02:03:14.507Z,63.15
2023-05-06T02:06:17.694Z,63.15
2023-05-06T02:09:20.588Z,63.32
2023-05-06T02:12:25.181Z,62.76
2023-05-06T02:15:29.053Z,63.06
2023-05-06T02:18:32.293Z,63.07
2023-05-06T02:21:34.727Z,62.58
2023-05-06T02:24:37.683Z,62.68
2023-05-06T02:27:40.026Z,61.97
2023-05-06T02:30:42.976Z,62.26
2023-05-06T02:33:45.523Z,62.34
2023-05-06T02:36:48.433Z,62.23
2023-05-06T02:39:50.830Z,62.04
2023-05-06T02:42:53.710Z,62.07
2023-05-06T02:45:56.050Z,62.17
2023-05-06T02:48:58.954Z,62.04
2023-05-06T02:52:01.227Z,62.03
2023-05-06T02:55:05.757Z,62.26
2023-05-06T02:58:08.202Z,62.71
2023-05-06T03:01:11.351Z,62.53
2023-05-06T03:04:13.884Z,62.66
2023-05-06T03:07:16.779Z,62.65
2023-05-06T03:10:19.476Z,62.83
2023-05-06T03:13:22.628Z,62.74
2023-05-06T03:16:25.303Z,62.84
2023-05-06T03:19:29.035Z,62.94
2023-05-06T03:22:31.415Z,62.90
2023-05-06T03:25:34.418Z,62.31
2023-05-06T03:28:36.985Z,62.88
2023-05-06T03:31:40.846Z,62.75
2023-05-06T03:34:43.829Z,62.72
2023-05-06T03:37:47.707Z,63.00
2023-05-06T03:40:50.821Z,63.53
2023-05-06T03:43:55.761Z,63.67
2023-05-06T03:46:58.795Z,63.38
2023-05-06T03:50:02.944Z,63.65
2023-05-06T03:53:06.248Z,63.14
2023-05-06T03:56:09.882Z,63.26
2023-05-06T03:59:13.166Z,62.92
2023-05-06T04:02:17.357Z,63.20
2023-05-06T04:05:20.290Z,63.18
2023-05-06T04:08:23.126Z,62.98
2023-05-06T04:11:26.428Z,62.94
2023-05-06T04:14:31.363Z,63.05
2023-05-06T04:17:34.218Z,63.29
2023-05-06T04:20:37.095Z,63.80
2023-05-06T04:23:39.849Z,63.68
2023-05-06T04:26:42.669Z,63.70
2023-05-06T04:29:46.144Z,63.11
2023-05-06T04:32:48.791Z,62.60
2023-05-06T04:35:56.244Z,62.69
2023-05-06T04:38:59.769Z,62.84
2023-05-06T04:42:03.438Z,62.24
2023-05-06T04:45:07.260Z,62.74
2023-05-06T04:48:11.153Z,62.85
2023-05-06T04:51:14.160Z,63.04
2023-05-06T04:54:16.878Z,63.22
2023-05-06T04:57:19.636Z,63.15
2023-05-06T05:00:22.417Z,63.51
2023-05-06T05:03:25.623Z,63.69
2023-05-06T05:06:28.927Z,63.53
2023-05-06T05:09:31.750Z,63.22
2023-05-06T05:12:34.488Z,63.44
2023-05-06T05:15:37.953Z,63.61
2023-05-06T05:18:41.405Z,63.40
2023-05-06T05:21:44.827Z,63.60
2023-05-06T05:24:48.503Z,63.63
2023-05-06T05:27:52.098Z,63.33
2023-05-06T05:30:55.171Z,63.23
2023-05-06T05:33:57.647Z,63.22
2023-05-06T05:37:00.822Z,63.12
2023-05-06T05:40:04.669Z,62.79
2023-05-06T05:43:07.865Z,62.75
2023-05-06T05:46:10.650Z,62.67
2023-05-06T05:49:14.038Z,61.98
2023-05-06T05:52:16.945Z,61.88
2023-05-06T05:55:20.047Z,61.58
2023-05-06T05:58:22.900Z,61.53
2023-05-06T06:01:26.917Z,61.36
2023-05-06T06:04:29.748Z,61.26
2023-05-06T06:07:33.408Z,60.66
2023-05-06T06:10:36.060Z,60.02
2023-05-06T06:13:39.127Z,61.10
2023-05-06T06:16:41.777Z,58.41
2023-05-06T06:19:47.782Z,58.22
2023-05-06T06:22:50.712Z,58.88
2023-05-06T06:25:53.502Z,58.47
2023-05-06T06:28:56.279Z,56.86
2023-05-06T06:31:59.486Z,57.03
2023-05-06T06:35:02.135Z,56.76
2023-05-06T06:38:04.798Z,56.89
2023-05-06T06:41:07.451Z,56.65
2023-05-06T06:44:10.089Z,58.06
2023-05-06T06:47:12.699Z,57.39
2023-05-06T06:50:15.387Z,55.19
2023-05-06T06:53:18.161Z,55.14
2023-05-06T06:56:21.964Z,55.23
2023-05-06T06:59:24.690Z,56.49
2023-05-06T07:02:27.357Z,56.65
2023-05-06T07:05:30.152Z,55.84
2023-05-06T07:08:32.752Z,56.02
2023-05-06T07:11:35.392Z,55.43
2023-05-06T07:14:37.946Z,51.64
2023-05-06T07:17:40.572Z,50.78
2023-05-06T07:20:43.181Z,53.06
2023-05-06T07:23:45.941Z,52.62
2023-05-06T07:26:48.540Z,50.84
2023-05-06T07:29:51.494Z,50.44
2023-05-06T07:32:54.185Z,49.93
2023-05-06T07:35:56.782Z,47.20
2023-05-06T07:38:59.532Z,49.76
2023-05-06T07:42:02.106Z,46.62
2023-05-06T07:45:05.342Z,46.02
2023-05-06T07:48:08.132Z,47.10
2023-05-06T07:51:10.758Z,45.22
2023-05-06T07:54:13.372Z,44.50
2023-05-06T07:57:16.266Z,44.91
2023-05-06T08:00:18.944Z,44.62
2023-05-06T08:03:22.634Z,46.19
2023-05-06T08:06:25.121Z,45.53
2023-05-06T08:09:28.155Z,45.02
2023-05-06T08:12:30.656Z,43.52
2023-05-06T08:15:33.568Z,44.95
2023-05-06T08:18:35.872Z,41.68
2023-05-06T08:21:38.788Z,43.83
2023-05-06T08:24:41.076Z,43.45
2023-05-06T08:27:43.954Z,40.48
2023-05-06T08:30:48.441Z,38.73
2023-05-06T08:33:54.353Z,37.46
2023-05-06T08:36:57.143Z,39.70
2023-05-06T08:40:00.261Z,40.89
2023-05-06T08:43:02.852Z,40.49
2023-05-06T08:46:05.768Z,39.30
2023-05-06T08:49:08.221Z,39.02
2023-05-06T08:52:11.804Z,34.93
2023-05-06T08:55:14.580Z,37.41
2023-05-06T08:58:19.097Z,37.24
2023-05-06T09:01:22.133Z,34.96
2023-05-06T09:04:25.044Z,34.48
2023-05-06T09:07:27.620Z,33.65
2023-05-06T09:10:37.988Z,32.31
2023-05-06T09:13:40.490Z,32.72
2023-05-06T09:16:44.925Z,33.09
2023-05-06T09:19:47.593Z,33.35
2023-05-06T09:22:50.680Z,32.69
2023-05-06T09:25:53.343Z,32.70
2023-05-06T09:28:57.910Z,30.10
2023-05-06T09:32:04.614Z,29.73
2023-05-06T09:35:08.462Z,30.66
2023-05-06T09:38:10.996Z,30.51
2023-05-06T09:41:14.392Z,31.74
2023-05-06T09:44:17.529Z,29.72
2023-05-06T09:47:33.531Z,32.17
2023-05-06T09:50:36.157Z,32.25
2023-05-06T09:53:39.184Z,31.45
2023-05-06T09:56:42.763Z,32.21
2023-05-06T09:59:47.372Z,32.32
2023-05-06T10:02:50.068Z,32.57
2023-05-06T10:05:54.486Z,31.07
2023-05-06T10:08:57.112Z,28.60
2023-05-06T10:12:00.740Z,31.58
2023-05-06T10:15:04.447Z,32.27
2023-05-06T10:18:07.426Z,30.75
2023-05-06T10:21:14.119Z,32.19
2023-05-06T10:24:19.339Z,34.19
2023-05-06T10:27:24.649Z,30.47
2023-05-06T10:30:28.567Z,33.43
2023-05-06T10:33:31.424Z,33.93
2023-05-06T10:36:36.367Z,34.54
2023-05-06T10:39:42.048Z,34.33
2023-05-06T10:42:45.127Z,34.88
2023-05-06T10:46:06.785Z,32.94
2023-05-06T10:49:13.825Z,35.55
2023-05-06T10:52:17.421Z,32.46
2023-05-06T10:55:30.054Z,31.93
2023-05-06T10:58:36.062Z,33.96
2023-05-06T11:01:42.646Z,32.97
2023-05-06T11:04:50.271Z,32.11
2023-05-06T11:08:06.651Z,33.83
2023-05-06T11:11:27.802Z,34.17
2023-05-06T11:14:31.682Z,32.34
2023-05-06T11:17:34.971Z,34.02
2023-05-06T11:20:37.930Z,35.56
2023-05-06T11:23:43.506Z,34.51
2023-05-06T11:26:47.714Z,34.56
2023-05-06T11:29:50.026Z,35.63
2023-05-06T11:32:55.449Z,35.77
2023-05-06T11:35:57.892Z,34.90
2023-05-06T11:39:05.337Z,37.21
2023-05-06T11:42:08.770Z,34.60
2023-05-06T11:45:12.000Z,34.79
2023-05-06T11:48:15.111Z,35.00
2023-05-06T11:51:27.149Z,34.89
2023-05-06T11:54:29.455Z,36.95
2023-05-06T11:57:33.286Z,34.94
2023-05-06T12:00:35.918Z,34.17
2023-05-06T12:03:38.848Z,36.68
2023-05-06T12:06:41.318Z,35.60
2023-05-06T12:09:48.565Z,34.83
2023-05-06T12:12:51.089Z,35.26
2023-05-06T12:15:55.116Z,35.42
2023-05-06T12:18:57.610Z,34.39
2023-05-06T12:22:18.770Z,35.01
2023-05-06T12:25:21.041Z,38.33
2023-05-06T12:28:26.979Z,35.92
2023-05-06T12:31:29.374Z,37.64
2023-05-06T12:34:39.266Z,35.80
2023-05-06T12:37:41.634Z,35.35
2023-05-06T12:40:45.697Z,35.62
2023-05-06T12:43:48.096Z,36.30
2023-05-06T12:46:52.633Z,37.10
2023-05-06T12:49:56.021Z,37.30
2023-05-06T12:52:58.898Z,37.83
2023-05-06T12:56:01.281Z,38.02
2023-05-06T12:59:04.433Z,37.67
2023-05-06T13:02:06.954Z,37.99
2023-05-06T13:05:09.999Z,38.20
2023-05-06T13:08:12.574Z,37.38
2023-05-06T13:11:15.519Z,36.96
2023-05-06T13:14:17.883Z,37.32
2023-05-06T13:17:20.885Z,37.21
2023-05-06T13:20:23.287Z,37.32
2023-05-06T13:23:26.203Z,37.37
2023-05-06T13:26:28.603Z,37.13
2023-05-06T13:29:31.926Z,39.00
2023-05-06T13:32:34.257Z,38.24
2023-05-06T13:35:37.185Z,38.88
2023-05-06T13:38:39.656Z,37.58
2023-05-06T13:41:42.813Z,37.27
2023-05-06T13:44:45.098Z,38.07
2023-05-06T13:47:47.986Z,39.12
2023-05-06T13:50:50.743Z,40.77
2023-05-06T13:53:53.654Z,41.46
2023-05-06T13:56:56.415Z,42.28
2023-05-06T13:59:59.309Z,42.34
2023-05-06T14:03:02.165Z,43.01
2023-05-06T14:06:05.347Z,42.91
2023-05-06T14:09:08.135Z,43.25
2023-05-06T14:12:10.982Z,43.60
2023-05-06T14:15:15.031Z,45.81
2023-05-06T14:18:18.072Z,44.24
2023-05-06T14:21:20.846Z,45.23
2023-05-06T14:24:23.779Z,46.42
2023-05-06T14:27:26.406Z,45.69
2023-05-06T14:30:30.002Z,46.46
2023-05-06T14:33:32.926Z,46.94
2023-05-06T14:36:35.888Z,47.75
2023-05-06T14:39:38.382Z,48.88
2023-05-06T14:42:41.310Z,49.72
2023-05-06T14:45:43.911Z,50.63
2023-05-06T14:48:46.933Z,51.88
2023-05-06T14:51:49.936Z,53.20
2023-05-06T14:54:52.868Z,54.63
2023-05-06T14:57:55.251Z,54.94
2023-05-06T15:00:58.219Z,55.88
2023-05-06T15:04:00.738Z,57.10
2023-05-06T15:07:04.039Z,58.23
2023-05-06T15:10:06.941Z,58.82
2023-05-06T15:13:09.970Z,59.26
2023-05-06T15:16:12.555Z,59.73
2023-05-06T15:19:15.502Z,61.09
2023-05-06T15:22:17.836Z,60.51
2023-05-06T15:25:34.407Z,60.63
2023-05-06T15:28:37.652Z,60.91
2023-05-06T15:31:41.259Z,61.47
2023-05-06T15:34:43.701Z,61.18
2023-05-06T15:37:46.618Z,61.28
2023-05-06T15:40:52.267Z,61.54
2023-05-06T15:43:56.551Z,61.82
2023-05-06T15:46:58.804Z,61.79
2023-05-06T15:50:01.962Z,61.84
2023-05-06T15:53:04.350Z,61.85
2023-05-06T15:56:17.668Z,62.09
2023-05-06T15:59:20.809Z,61.70
2023-05-06T16:02:27.170Z,61.90
2023-05-06T16:05:31.097Z,62.08
2023-05-06T16:08:33.890Z,61.29
2023-05-06T16:11:36.457Z,60.99
2023-05-06T16:14:39.042Z,60.29
2023-05-06T16:17:41.893Z,60.43
2023-05-06T16:20:44.495Z,60.26
2023-05-06T16:23:47.322Z,60.23
2023-05-06T16:26:49.952Z,59.96
2023-05-06T16:29:52.630Z,59.97
2023-05-06T16:32:55.329Z,59.81
2023-05-06T16:35:57.950Z,60.32
2023-05-06T16:39:00.596Z,60.73
2023-05-06T16:42:03.668Z,60.97
2023-05-06T16:45:07.151Z,61.08
2023-05-06T16:48:09.919Z,61.19
2023-05-06T16:51:14.379Z,61.08
2023-05-06T16:54:17.085Z,61.35
2023-05-06T16:57:19.831Z,61.51
2023-05-06T17:00:23.636Z,61.56
2023-05-06T17:03:26.358Z,61.00
2023-05-06T17:06:31.299Z,61.26
2023-05-06T17:09:33.977Z,61.64
2023-05-06T17:12:36.638Z,61.38
2023-05-06T17:15:39.340Z,61.58
2023-05-06T17:18:41.988Z,62.34
2023-05-06T17:21:44.590Z,62.16
2023-05-06T17:24:47.392Z,62.89
2023-05-06T17:27:49.983Z,62.58
2023-05-06T17:30:52.587Z,62.77
2023-05-06T17:33:55.290Z,62.98
2023-05-06T17:36:57.904Z,63.29
2023-05-06T17:40:00.614Z,63.25
2023-05-06T17:43:03.280Z,63.17
2023-05-06T17:46:06.903Z,63.39
2023-05-06T17:49:09.534Z,63.84
2023-05-06T17:52:12.222Z,64.06
2023-05-06T17:55:17.444Z,63.75
2023-05-06T17:58:21.476Z,63.35
2023-05-06T18:01:24.164Z,63.65
2023-05-06T18:04:27.175Z,63.98
2023-05-06T18:07:29.835Z,64.05
2023-05-06T18:10:32.772Z,64.22
2023-05-06T18:13:36.347Z,64.23
2023-05-06T18:16:39.264Z,64.49
2023-05-06T18:19:41.562Z,64.65
2023-05-06T18:22:44.831Z,64.58
2023-05-06T18:25:47.284Z,64.70
2023-05-06T18:28:50.194Z,64.57
2023-05-06T18:31:52.679Z,64.63
2023-05-06T18:34:55.676Z,64.11
2023-05-06T18:37:58.291Z,64.32
2023-05-06T18:41:01.869Z,64.54
2023-05-06T18:44:04.679Z,64.81
2023-05-06T18:47:07.576Z,65.02
2023-05-06T18:50:10.042Z,65.30
2023-05-06T18:53:12.851Z,65.14
2023-05-06T18:56:15.219Z,65.40
2023-05-06T18:59:19.562Z,65.53
2023-05-06T19:02:22.232Z,65.64
2023-05-06T19:05:25.132Z,65.41
2023-05-06T19:08:27.622Z,65.33
2023-05-06T19:11:30.628Z,65.43
2023-05-06T19:14:34.667Z,65.58
2023-05-06T19:17:37.727Z,62.04
2023-05-06T19:20:40.458Z,60.93
2023-05-06T19:23:43.421Z,61.88
2023-05-06T19:26:46.439Z,62.97
2023-05-06T19:29:49.551Z,62.64
2023-05-06T19:32:53.631Z,77.14
2023-05-06T19:35:57.838Z,84.93
2023-05-06T19:39:00.202Z,90.45
2023-05-06T19:42:03.093Z,94.36
2023-05-06T19:45:08.823Z,97.82
2023-05-06T19:48:14.589Z,100.00
2023-05-06T19:51:17.621Z,100.00
2023-05-06T19:54:20.684Z,82.46
2023-05-06T19:57:23.079Z,95.91
2023-05-06T20:00:28.091Z,100.00
2023-05-06T20:03:31.582Z,100.00
2023-05-06T20:06:34.248Z,100.00
2023-05-06T20:09:37.034Z,97.23
2023-05-06T20:12:43.297Z,78.22
2023-05-06T20:15:46.049Z,90.22
2023-05-06T20:18:49.688Z,96.23
2023-05-06T20:21:52.409Z,97.96
2023-05-06T20:25:07.211Z,90.84
2023-05-06T20:28:09.907Z,85.56
2023-05-06T20:31:12.656Z,91.26
2023-05-06T20:34:15.480Z,92.67
2023-05-06T20:37:18.428Z,91.48
2023-05-06T20:40:21.457Z,90.57
2023-05-06T20:43:24.876Z,92.16
2023-05-06T20:46:27.592Z,90.80
2023-05-06T20:49:30.994Z,90.45
2023-05-06T20:52:34.239Z,90.11
2023-05-06T20:55:36.992Z,88.84
2023-05-06T20:58:41.258Z,81.40
2023-05-06T21:01:43.927Z,81.61
2023-05-06T21:04:46.757Z,83.65
2023-05-06T21:07:49.609Z,75.60
2023-05-06T21:10:52.260Z,73.41
2023-05-06T21:13:55.172Z,77.27
2023-05-06T21:16:57.843Z,78.77
2023-05-06T21:20:00.819Z,78.89
2023-05-06T21:23:03.947Z,79.75
2023-05-06T21:26:06.779Z,80.27
2023-05-06T21:29:09.503Z,80.09
2023-05-06T21:32:12.263Z,82.55
2023-05-06T21:35:18.078Z,83.43
2023-05-06T21:38:20.860Z,84.92
2023-05-06T21:41:23.557Z,85.62
2023-05-06T21:44:26.199Z,84.90
2023-05-06T21:47:29.119Z,84.28
2023-05-06T21:50:31.754Z,83.57
2023-05-06T21:53:34.421Z,82.63
2023-05-06T21:56:38.039Z,80.38
2023-05-06T21:59:40.910Z,81.24
2023-05-06T22:02:43.539Z,80.94
2023-05-06T22:05:46.370Z,79.74
2023-05-06T22:08:49.210Z,77.14
2023-05-06T22:11:51.950Z,78.16
2023-05-06T22:14:54.586Z,72.78
2023-05-06T22:17:59.065Z,72.36
2023-05-06T22:21:03.141Z,69.26
2023-05-06T22:24:06.041Z,67.90
2023-05-06T22:27:08.662Z,69.59
2023-05-06T22:30:11.690Z,67.93
2023-05-06T22:33:14.286Z,71.31
2023-05-06T22:36:16.893Z,69.89
2023-05-06T22:39:19.834Z,68.78
2023-05-06T22:42:22.464Z,69.45
2023-05-06T22:45:25.174Z,70.08
2023-05-06T22:48:27.984Z,71.00
2023-05-06T22:51:32.145Z,71.43
2023-05-06T22:54:34.824Z,73.63
2023-05-06T22:57:37.493Z,75.87
2023-05-06T23:00:41.401Z,76.00
2023-05-06T23:03:46.441Z,77.10
2023-05-06T23:06:49.121Z,77.42
2023-05-06T23:09:51.841Z,77.76
2023-05-06T23:12:54.472Z,77.69
2023-05-06T23:15:57.244Z,77.90
2023-05-06T23:18:59.937Z,77.48
2023-05-06T23:22:02.578Z,77.06
2023-05-06T23:25:05.785Z,75.13
2023-05-06T23:28:08.424Z,73.29
2023-05-06T23:31:11.090Z,75.37
2023-05-06T23:34:16.115Z,76.78
2023-05-06T23:37:19.160Z,75.00
2023-05-06T23:40:21.866Z,70.23
2023-05-06T23:43:24.496Z,70.78
2023-05-06T23:46:27.203Z,70.00
2023-05-06T23:49:29.893Z,68.47
2023-05-06T23:52:32.466Z,68.79
2023-05-06T23:55:35.799Z,72.93
2023-05-06T23:58:38.416Z,74.93
